Centerton, AR

12:59 PM CDT on July 06, 2015 (GMT -0500)
APRSWXNET | | Change Station
CLOSE
Current Station
Personal Weather Station
Location: Centerton, AR
Elevation: 1305 ft
Nearby Weather Stations

Elev 1305 ft 36.37 °N, 94.29 °W | Updated 28 minutes ago

Overcast
Overcast
80 °F
Feels Like 84 °F
N
5
Wind Variable Wind from SSW
Gusts 11.0 mph

Today
High -- | Low -- °F
--% Chance of Precip.
Yesterday
High -- | Low -- °F
Precip. -- in
6:05 AM 8:38 PM
Waning Gibbous, 73% visible
Pressure 30.04 in
Visibility 10.0 miles
Clouds Few 2100 ft
Mostly Cloudy 2600 ft
Overcast 4300 ft
Heat Index 84 °F
Dew Point 73 °F
Humidity 80%
Rainfall in
Snow Depth Not available.
UV 4 out of 12
Pollen 3.70 out of 12
Air Quality Not available.
Flu Activity Not available.
METAR KVBT 061755Z AUTO 20011G16KT 10SM FEW021 BKN026 OVC043 27/22 A3004 RMK AO1 10270 20230 57003

More Conditions Fewer Conditions

Pressure 30.04 in
Visibility 10.0 miles
Clouds Few 2100 ft
Mostly Cloudy 2600 ft
Overcast 4300 ft
Heat Index 84 °F
Dew Point 73 °F
Humidity 80%
Rainfall in
Snow Depth Not available.
UV 4 out of 12
Pollen 3.70 out of 12
Air Quality Not available.
Flu Activity Not available.
METAR KVBT 061755Z AUTO 20011G16KT 10SM FEW021 BKN026 OVC043 27/22 A3004 RMK AO1 10270 20230 57003

More Conditions Fewer Conditions

Nowcast | as of 12:54 PM CDT on July 6, 2015

At 12:54 PM...National Weather Service Doppler radars continued to detect scattered rain showers with embedded thunderstorms developing over portions of southeast Oklahoma and western Arkansas...mainly along and east of a line from Antlers, to Fayetteville. All of this activity was moving toward the northeast...around 30 miles per hour. Through 2:30 PM...scattered rain showers and isolated thunderstorms will remain possible. Brief light rainfall can be expected, with precipitation amounts less than a tenth of an inch. If any of the storms become stronger, they could produce a quick downpour, with possible gusty winds. By mid afternoon, the coverage and intensity of the storms is expected to increase...with a couple storms possibly becoming strong to severe.

×

10-Day Weather Forecast

×

Almanac

Astronomy

Jul. 06, 2015 Rise Set
Actual Time
Civil Twilight
Nautical Twilight
Astronomical Twilight
Moon
Length of Visible Light
Length of Day
Tomorrow will be .
, % of the Moon is Illuminated

Today's Extremes

State Highs State Lows

Community

WunderPhotos

Upload Photos

1,835,607 photos uploaded!

WunderBlogs® & News

Nearby

Air Quality

  Air Quality AQ Index Pollutant
Not available.

Snow Depth

Station Depth Elevation

Earthquake Activity

City Distance Mag. Time & Date
Minimum magnitude displayed is 2.5.

Coastal Water Temperatures

Place Temperature

Stations

Nearby Weather Stations

Station Location Temp. Windchill Dew Point Humidity Wind Precip. Elev Updated Type